sensor_id;sensor_type;location;lat;lon;timestamp;temperature;humidity
18694;DHT22;9477;51.414;10.362;2023-03-18T00:01:34;13.40;67.90
18694;DHT22;9477;51.414;10.362;2023-03-18T00:03:37;13.50;67.80
18694;DHT22;9477;51.414;10.362;2023-03-18T00:05:40;13.60;67.90
18694;DHT22;9477;51.414;10.362;2023-03-18T00:07:43;13.50;67.70
18694;DHT22;9477;51.414;10.362;2023-03-18T00:09:48;13.40;67.90
18694;DHT22;9477;51.414;10.362;2023-03-18T00:11:53;13.50;68.10
18694;DHT22;9477;51.414;10.362;2023-03-18T00:13:57;13.60;68.10
18694;DHT22;9477;51.414;10.362;2023-03-18T00:16:00;13.50;68.30
18694;DHT22;9477;51.414;10.362;2023-03-18T00:18:04;13.50;68.30
18694;DHT22;9477;51.414;10.362;2023-03-18T00:20:09;13.50;68.20
18694;DHT22;9477;51.414;10.362;2023-03-18T00:22:13;13.60;68.30
18694;DHT22;9477;51.414;10.362;2023-03-18T00:24:16;13.60;68.00
18694;DHT22;9477;51.414;10.362;2023-03-18T00:26:20;13.60;67.90
18694;DHT22;9477;51.414;10.362;2023-03-18T00:28:23;13.50;67.80
18694;DHT22;9477;51.414;10.362;2023-03-18T00:30:26;13.60;68.00
18694;DHT22;9477;51.414;10.362;2023-03-18T00:32:29;13.50;67.80
18694;DHT22;9477;51.414;10.362;2023-03-18T00:34:33;13.40;68.10
18694;DHT22;9477;51.414;10.362;2023-03-18T00:36:36;13.30;68.20
18694;DHT22;9477;51.414;10.362;2023-03-18T00:38:39;13.30;68.20
18694;DHT22;9477;51.414;10.362;2023-03-18T00:40:42;13.40;68.40
18694;DHT22;9477;51.414;10.362;2023-03-18T00:42:55;13.50;68.40
18694;DHT22;9477;51.414;10.362;2023-03-18T00:45:09;13.50;68.30
18694;DHT22;9477;51.414;10.362;2023-03-18T00:47:12;13.60;68.20
18694;DHT22;9477;51.414;10.362;2023-03-18T00:49:15;13.70;67.90
18694;DHT22;9477;51.414;10.362;2023-03-18T00:51:19;13.80;67.70
18694;DHT22;9477;51.414;10.362;2023-03-18T00:53:23;13.80;67.50
18694;DHT22;9477;51.414;10.362;2023-03-18T00:55:26;13.90;67.40
18694;DHT22;9477;51.414;10.362;2023-03-18T00:57:29;13.90;67.20
18694;DHT22;9477;51.414;10.362;2023-03-18T00:59:33;13.90;67.20
18694;DHT22;9477;51.414;10.362;2023-03-18T01:01:36;13.80;67.30
18694;DHT22;9477;51.414;10.362;2023-03-18T01:03:40;13.60;67.70
18694;DHT22;9477;51.414;10.362;2023-03-18T01:05:43;13.60;68.00
18694;DHT22;9477;51.414;10.362;2023-03-18T01:07:47;13.50;68.20
18694;DHT22;9477;51.414;10.362;2023-03-18T01:09:50;13.60;68.30
18694;DHT22;9477;51.414;10.362;2023-03-18T01:11:52;13.40;68.70
18694;DHT22;9477;51.414;10.362;2023-03-18T01:13:56;13.30;68.90
18694;DHT22;9477;51.414;10.362;2023-03-18T01:16:01;13.30;69.00
18694;DHT22;9477;51.414;10.362;2023-03-18T01:18:04;13.30;69.10
18694;DHT22;9477;51.414;10.362;2023-03-18T01:20:08;13.30;69.10
18694;DHT22;9477;51.414;10.362;2023-03-18T01:22:12;13.40;69.20
18694;DHT22;9477;51.414;10.362;2023-03-18T01:24:15;13.50;69.90
18694;DHT22;9477;51.414;10.362;2023-03-18T01:26:18;13.40;69.00
18694;DHT22;9477;51.414;10.362;2023-03-18T01:28:21;13.40;69.10
18694;DHT22;9477;51.414;10.362;2023-03-18T01:30:23;13.30;69.20
18694;DHT22;9477;51.414;10.362;2023-03-18T01:32:28;13.40;69.30
18694;DHT22;9477;51.414;10.362;2023-03-18T01:34:31;13.40;69.40
18694;DHT22;9477;51.414;10.362;2023-03-18T01:36:34;13.40;69.50
18694;DHT22;9477;51.414;10.362;2023-03-18T01:38:37;13.50;69.50
18694;DHT22;9477;51.414;10.362;2023-03-18T01:40:41;13.40;69.80
18694;DHT22;9477;51.414;10.362;2023-03-18T01:42:51;13.40;69.90
18694;DHT22;9477;51.414;10.362;2023-03-18T01:45:16;13.50;69.90
18694;DHT22;9477;51.414;10.362;2023-03-18T01:47:20;13.50;70.00
18694;DHT22;9477;51.414;10.362;2023-03-18T01:49:27;13.60;69.80
18694;DHT22;9477;51.414;10.362;2023-03-18T01:51:33;13.70;69.80
18694;DHT22;9477;51.414;10.362;2023-03-18T01:53:39;13.70;69.60
18694;DHT22;9477;51.414;10.362;2023-03-18T01:55:44;13.70;69.40
18694;DHT22;9477;51.414;10.362;2023-03-18T01:57:49;13.70;69.40
18694;DHT22;9477;51.414;10.362;2023-03-18T01:59:53;13.80;69.50
18694;DHT22;9477;51.414;10.362;2023-03-18T02:02:01;13.80;69.60
18694;DHT22;9477;51.414;10.362;2023-03-18T02:04:07;13.80;69.70
18694;DHT22;9477;51.414;10.362;2023-03-18T02:06:12;13.80;69.70
18694;DHT22;9477;51.414;10.362;2023-03-18T02:08:15;13.80;69.70
18694;DHT22;9477;51.414;10.362;2023-03-18T02:10:20;13.70;69.80
18694;DHT22;9477;51.414;10.362;2023-03-18T02:12:26;13.70;69.80
18694;DHT22;9477;51.414;10.362;2023-03-18T02:14:30;13.70;70.00
18694;DHT22;9477;51.414;10.362;2023-03-18T02:16:36;13.80;69.90
18694;DHT22;9477;51.414;10.362;2023-03-18T02:18:44;13.80;69.80
18694;DHT22;9477;51.414;10.362;2023-03-18T02:21:01;13.90;69.80
18694;DHT22;9477;51.414;10.362;2023-03-18T02:23:17;13.90;69.90
18694;DHT22;9477;51.414;10.362;2023-03-18T02:25:30;13.90;69.80
18694;DHT22;9477;51.414;10.362;2023-03-18T02:27:38;13.90;69.90
18694;DHT22;9477;51.414;10.362;2023-03-18T02:29:42;13.90;69.90
18694;DHT22;9477;51.414;10.362;2023-03-18T02:31:46;14.00;70.00
18694;DHT22;9477;51.414;10.362;2023-03-18T02:33:49;13.90;69.80
18694;DHT22;9477;51.414;10.362;2023-03-18T02:35:56;14.00;70.10
18694;DHT22;9477;51.414;10.362;2023-03-18T02:38:00;14.00;70.10
18694;DHT22;9477;51.414;10.362;2023-03-18T02:40:15;13.80;70.40
18694;DHT22;9477;51.414;10.362;2023-03-18T02:42:27;13.80;70.70
18694;DHT22;9477;51.414;10.362;2023-03-18T02:44:32;13.90;70.60
18694;DHT22;9477;51.414;10.362;2023-03-18T02:46:42;13.90;70.50
18694;DHT22;9477;51.414;10.362;2023-03-18T02:48:49;14.00;70.40
18694;DHT22;9477;51.414;10.362;2023-03-18T02:50:53;14.00;70.30
18694;DHT22;9477;51.414;10.362;2023-03-18T02:52:58;14.00;70.20
18694;DHT22;9477;51.414;10.362;2023-03-18T02:55:01;14.00;70.40
18694;DHT22;9477;51.414;10.362;2023-03-18T02:57:04;13.70;70.60
18694;DHT22;9477;51.414;10.362;2023-03-18T02:59:08;13.50;71.10
18694;DHT22;9477;51.414;10.362;2023-03-18T03:01:12;13.60;71.40
18694;DHT22;9477;51.414;10.362;2023-03-18T03:03:15;13.70;71.20
18694;DHT22;9477;51.414;10.362;2023-03-18T03:05:19;13.70;70.80
18694;DHT22;9477;51.414;10.362;2023-03-18T03:07:25;13.80;70.80
18694;DHT22;9477;51.414;10.362;2023-03-18T03:09:28;13.90;70.70
18694;DHT22;9477;51.414;10.362;2023-03-18T03:11:31;13.90;70.50
18694;DHT22;9477;51.414;10.362;2023-03-18T03:13:34;14.00;70.50
18694;DHT22;9477;51.414;10.362;2023-03-18T03:15:38;13.90;70.40
18694;DHT22;9477;51.414;10.362;2023-03-18T03:17:42;14.00;70.80
18694;DHT22;9477;51.414;10.362;2023-03-18T03:19:45;14.00;70.60
18694;DHT22;9477;51.414;10.362;2023-03-18T03:21:48;14.00;70.50
18694;DHT22;9477;51.414;10.362;2023-03-18T03:23:51;13.80;70.70
18694;DHT22;9477;51.414;10.362;2023-03-18T03:25:54;13.70;70.90
18694;DHT22;9477;51.414;10.362;2023-03-18T03:27:58;13.70;71.00
18694;DHT22;9477;51.414;10.362;2023-03-18T03:30:01;13.80;71.20
18694;DHT22;9477;51.414;10.362;2023-03-18T03:32:04;13.80;71.30
18694;DHT22;9477;51.414;10.362;2023-03-18T03:34:08;13.90;71.20
18694;DHT22;9477;51.414;10.362;2023-03-18T03:36:14;13.90;71.20
18694;DHT22;9477;51.414;10.362;2023-03-18T03:38:18;13.80;71.10
18694;DHT22;9477;51.414;10.362;2023-03-18T03:40:21;13.60;71.30
18694;DHT22;9477;51.414;10.362;2023-03-18T03:42:24;13.70;71.60
18694;DHT22;9477;51.414;10.362;2023-03-18T03:44:27;13.80;71.70
18694;DHT22;9477;51.414;10.362;2023-03-18T03:46:29;13.90;71.70
18694;DHT22;9477;51.414;10.362;2023-03-18T03:48:33;13.90;71.80
18694;DHT22;9477;51.414;10.362;2023-03-18T03:50:37;13.90;72.10
18694;DHT22;9477;51.414;10.362;2023-03-18T03:52:40;13.90;72.40
18694;DHT22;9477;51.414;10.362;2023-03-18T03:54:44;13.80;72.60
18694;DHT22;9477;51.414;10.362;2023-03-18T03:56:46;13.80;73.00
18694;DHT22;9477;51.414;10.362;2023-03-18T03:58:49;13.80;73.00
18694;DHT22;9477;51.414;10.362;2023-03-18T04:00:52;13.80;73.20
18694;DHT22;9477;51.414;10.362;2023-03-18T04:02:56;13.90;73.50
18694;DHT22;9477;51.414;10.362;2023-03-18T04:04:59;13.90;73.60
18694;DHT22;9477;51.414;10.362;2023-03-18T04:07:04;13.80;73.80
18694;DHT22;9477;51.414;10.362;2023-03-18T04:09:07;13.90;74.50
18694;DHT22;9477;51.414;10.362;2023-03-18T04:11:10;13.90;74.60
18694;DHT22;9477;51.414;10.362;2023-03-18T04:13:13;13.90;74.70
18694;DHT22;9477;51.414;10.362;2023-03-18T04:15:17;13.90;74.90
18694;DHT22;9477;51.414;10.362;2023-03-18T04:17:21;14.00;75.00
18694;DHT22;9477;51.414;10.362;2023-03-18T04:19:25;13.90;75.10
18694;DHT22;9477;51.414;10.362;2023-03-18T04:21:29;13.90;75.30
18694;DHT22;9477;51.414;10.362;2023-03-18T04:23:33;13.90;75.40
18694;DHT22;9477;51.414;10.362;2023-03-18T04:25:36;14.00;75.70
18694;DHT22;9477;51.414;10.362;2023-03-18T04:27:39;14.00;75.90
18694;DHT22;9477;51.414;10.362;2023-03-18T04:29:42;14.00;76.20
18694;DHT22;9477;51.414;10.362;2023-03-18T04:31:45;14.00;76.40
18694;DHT22;9477;51.414;10.362;2023-03-18T04:33:48;13.90;76.40
18694;DHT22;9477;51.414;10.362;2023-03-18T04:35:51;14.00;76.40
18694;DHT22;9477;51.414;10.362;2023-03-18T04:37:54;14.00;76.50
18694;DHT22;9477;51.414;10.362;2023-03-18T04:39:58;13.90;76.50
18694;DHT22;9477;51.414;10.362;2023-03-18T04:42:01;13.90;76.90
18694;DHT22;9477;51.414;10.362;2023-03-18T04:44:04;13.90;76.80
18694;DHT22;9477;51.414;10.362;2023-03-18T04:46:07;14.00;77.10
18694;DHT22;9477;51.414;10.362;2023-03-18T04:48:10;13.90;77.20
18694;DHT22;9477;51.414;10.362;2023-03-18T04:50:14;13.80;77.30
18694;DHT22;9477;51.414;10.362;2023-03-18T04:52:18;13.80;77.50
18694;DHT22;9477;51.414;10.362;2023-03-18T04:54:21;13.80;77.80
18694;DHT22;9477;51.414;10.362;2023-03-18T04:56:25;13.80;77.80
18694;DHT22;9477;51.414;10.362;2023-03-18T04:58:28;13.80;78.70
18694;DHT22;9477;51.414;10.362;2023-03-18T05:00:31;13.80;78.50
18694;DHT22;9477;51.414;10.362;2023-03-18T05:02:35;13.70;78.30
18694;DHT22;9477;51.414;10.362;2023-03-18T05:04:38;13.50;79.30
18694;DHT22;9477;51.414;10.362;2023-03-18T05:06:41;13.40;79.60
18694;DHT22;9477;51.414;10.362;2023-03-18T05:08:44;13.40;80.00
18694;DHT22;9477;51.414;10.362;2023-03-18T05:10:48;13.50;80.00
18694;DHT22;9477;51.414;10.362;2023-03-18T05:12:52;13.60;79.80
18694;DHT22;9477;51.414;10.362;2023-03-18T05:14:55;13.60;79.70
18694;DHT22;9477;51.414;10.362;2023-03-18T05:16:58;13.60;79.90
18694;DHT22;9477;51.414;10.362;2023-03-18T05:19:01;13.60;80.00
18694;DHT22;9477;51.414;10.362;2023-03-18T05:21:04;13.70;79.90
18694;DHT22;9477;51.414;10.362;2023-03-18T05:23:08;13.70;79.70
18694;DHT22;9477;51.414;10.362;2023-03-18T05:25:11;13.80;79.70
18694;DHT22;9477;51.414;10.362;2023-03-18T05:27:15;13.80;79.70
18694;DHT22;9477;51.414;10.362;2023-03-18T05:29:20;13.80;79.60
18694;DHT22;9477;51.414;10.362;2023-03-18T05:31:24;13.70;79.50
18694;DHT22;9477;51.414;10.362;2023-03-18T05:33:27;13.70;79.70
18694;DHT22;9477;51.414;10.362;2023-03-18T05:35:30;13.70;79.70
18694;DHT22;9477;51.414;10.362;2023-03-18T05:37:34;13.60;79.90
18694;DHT22;9477;51.414;10.362;2023-03-18T05:39:37;13.50;80.00
18694;DHT22;9477;51.414;10.362;2023-03-18T05:41:40;13.50;80.10
18694;DHT22;9477;51.414;10.362;2023-03-18T05:43:43;13.50;80.10
18694;DHT22;9477;51.414;10.362;2023-03-18T05:45:47;13.50;80.10
18694;DHT22;9477;51.414;10.362;2023-03-18T05:47:50;13.50;80.20
18694;DHT22;9477;51.414;10.362;2023-03-18T05:49:53;13.50;80.40
18694;DHT22;9477;51.414;10.362;2023-03-18T05:51:56;13.40;80.40
18694;DHT22;9477;51.414;10.362;2023-03-18T05:53:59;13.50;81.20
18694;DHT22;9477;51.414;10.362;2023-03-18T05:56:02;13.50;80.40
18694;DHT22;9477;51.414;10.362;2023-03-18T05:58:06;13.60;80.30
18694;DHT22;9477;51.414;10.362;2023-03-18T06:00:10;13.60;80.50
18694;DHT22;9477;51.414;10.362;2023-03-18T06:02:15;13.70;80.50
18694;DHT22;9477;51.414;10.362;2023-03-18T06:04:18;13.70;80.30
18694;DHT22;9477;51.414;10.362;2023-03-18T06:06:21;13.80;80.30
18694;DHT22;9477;51.414;10.362;2023-03-18T06:08:24;13.70;80.20
18694;DHT22;9477;51.414;10.362;2023-03-18T06:10:26;13.70;80.20
18694;DHT22;9477;51.414;10.362;2023-03-18T06:12:29;13.80;80.20
18694;DHT22;9477;51.414;10.362;2023-03-18T06:14:32;13.80;80.10
18694;DHT22;9477;51.414;10.362;2023-03-18T06:16:36;13.80;80.20
18694;DHT22;9477;51.414;10.362;2023-03-18T06:18:41;13.70;80.10
18694;DHT22;9477;51.414;10.362;2023-03-18T06:20:43;13.70;80.10
18694;DHT22;9477;51.414;10.362;2023-03-18T06:22:46;13.60;80.50
18694;DHT22;9477;51.414;10.362;2023-03-18T06:24:50;13.60;80.50
18694;DHT22;9477;51.414;10.362;2023-03-18T06:26:53;13.60;80.80
18694;DHT22;9477;51.414;10.362;2023-03-18T06:28:56;13.60;80.70
18694;DHT22;9477;51.414;10.362;2023-03-18T06:30:59;13.70;80.70
18694;DHT22;9477;51.414;10.362;2023-03-18T06:33:03;13.70;80.70
18694;DHT22;9477;51.414;10.362;2023-03-18T06:35:09;13.80;80.90
18694;DHT22;9477;51.414;10.362;2023-03-18T06:37:12;13.70;81.10
18694;DHT22;9477;51.414;10.362;2023-03-18T06:39:15;13.70;81.50
18694;DHT22;9477;51.414;10.362;2023-03-18T06:41:18;13.70;81.60
18694;DHT22;9477;51.414;10.362;2023-03-18T06:43:21;13.80;81.50
18694;DHT22;9477;51.414;10.362;2023-03-18T06:45:24;13.80;81.90
18694;DHT22;9477;51.414;10.362;2023-03-18T06:47:27;13.90;82.20
18694;DHT22;9477;51.414;10.362;2023-03-18T06:49:30;13.90;82.10
18694;DHT22;9477;51.414;10.362;2023-03-18T06:51:34;14.10;82.30
18694;DHT22;9477;51.414;10.362;2023-03-18T06:53:37;14.10;82.50
18694;DHT22;9477;51.414;10.362;2023-03-18T06:55:40;14.20;82.70
18694;DHT22;9477;51.414;10.362;2023-03-18T06:57:46;14.30;82.60
18694;DHT22;9477;51.414;10.362;2023-03-18T06:59:49;14.50;82.50
18694;DHT22;9477;51.414;10.362;2023-03-18T07:01:52;14.60;82.20
18694;DHT22;9477;51.414;10.362;2023-03-18T07:03:55;14.70;82.60
18694;DHT22;9477;51.414;10.362;2023-03-18T07:05:59;14.80;81.80
18694;DHT22;9477;51.414;10.362;2023-03-18T07:08:04;14.80;81.60
18694;DHT22;9477;51.414;10.362;2023-03-18T07:10:09;14.80;81.50
18694;DHT22;9477;51.414;10.362;2023-03-18T07:12:13;14.90;81.60
18694;DHT22;9477;51.414;10.362;2023-03-18T07:14:17;14.90;81.50
18694;DHT22;9477;51.414;10.362;2023-03-18T07:16:20;14.90;81.40
18694;DHT22;9477;51.414;10.362;2023-03-18T07:18:22;14.90;81.20
18694;DHT22;9477;51.414;10.362;2023-03-18T07:20:25;14.90;81.40
18694;DHT22;9477;51.414;10.362;2023-03-18T07:22:29;15.00;81.50
18694;DHT22;9477;51.414;10.362;2023-03-18T07:24:33;15.00;81.50
18694;DHT22;9477;51.414;10.362;2023-03-18T07:26:36;15.10;81.70
18694;DHT22;9477;51.414;10.362;2023-03-18T07:28:39;15.20;81.70
18694;DHT22;9477;51.414;10.362;2023-03-18T07:30:42;15.40;81.50
18694;DHT22;9477;51.414;10.362;2023-03-18T07:32:45;15.60;81.40
18694;DHT22;9477;51.414;10.362;2023-03-18T07:34:48;15.70;81.40
18694;DHT22;9477;51.414;10.362;2023-03-18T07:36:51;15.80;81.30
18694;DHT22;9477;51.414;10.362;2023-03-18T07:38:54;15.90;81.30
18694;DHT22;9477;51.414;10.362;2023-03-18T07:40:58;15.90;81.00
18694;DHT22;9477;51.414;10.362;2023-03-18T07:43:01;16.00;80.90
18694;DHT22;9477;51.414;10.362;2023-03-18T07:45:05;16.10;80.90
18694;DHT22;9477;51.414;10.362;2023-03-18T07:47:08;16.00;80.70
18694;DHT22;9477;51.414;10.362;2023-03-18T07:49:11;15.90;81.00
18694;DHT22;9477;51.414;10.362;2023-03-18T07:51:14;16.10;81.60
18694;DHT22;9477;51.414;10.362;2023-03-18T07:53:17;16.30;81.40
18694;DHT22;9477;51.414;10.362;2023-03-18T07:55:19;16.40;81.10
18694;DHT22;9477;51.414;10.362;2023-03-18T07:57:24;16.50;81.20
18694;DHT22;9477;51.414;10.362;2023-03-18T07:59:26;16.50;81.00
18694;DHT22;9477;51.414;10.362;2023-03-18T08:01:29;16.70;81.30
18694;DHT22;9477;51.414;10.362;2023-03-18T08:03:33;16.70;81.00
18694;DHT22;9477;51.414;10.362;2023-03-18T08:05:36;16.80;81.10
18694;DHT22;9477;51.414;10.362;2023-03-18T08:07:39;16.90;81.10
18694;DHT22;9477;51.414;10.362;2023-03-18T08:09:42;16.90;81.80
18694;DHT22;9477;51.414;10.362;2023-03-18T08:11:45;17.10;81.30
18694;DHT22;9477;51.414;10.362;2023-03-18T08:13:49;17.10;80.80
18694;DHT22;9477;51.414;10.362;2023-03-18T08:15:52;17.20;81.10
18694;DHT22;9477;51.414;10.362;2023-03-18T08:17:55;17.20;80.80
18694;DHT22;9477;51.414;10.362;2023-03-18T08:19:58;17.20;80.60
18694;DHT22;9477;51.414;10.362;2023-03-18T08:22:01;17.20;80.70
18694;DHT22;9477;51.414;10.362;2023-03-18T08:24:05;17.10;80.70
18694;DHT22;9477;51.414;10.362;2023-03-18T08:26:08;17.20;81.00
18694;DHT22;9477;51.414;10.362;2023-03-18T08:28:11;17.40;81.00
18694;DHT22;9477;51.414;10.362;2023-03-18T08:30:15;17.50;81.00
18694;DHT22;9477;51.414;10.362;2023-03-18T08:32:18;17.60;80.90
18694;DHT22;9477;51.414;10.362;2023-03-18T08:34:22;17.70;81.10
18694;DHT22;9477;51.414;10.362;2023-03-18T08:36:25;17.70;80.50
18694;DHT22;9477;51.414;10.362;2023-03-18T08:38:28;17.80;80.60
18694;DHT22;9477;51.414;10.362;2023-03-18T08:40:33;17.90;80.70
18694;DHT22;9477;51.414;10.362;2023-03-18T08:42:36;17.90;80.50
18694;DHT22;9477;51.414;10.362;2023-03-18T08:44:39;17.90;80.50
18694;DHT22;9477;51.414;10.362;2023-03-18T08:46:45;18.10;80.40
18694;DHT22;9477;51.414;10.362;2023-03-18T08:48:48;18.20;80.20
18694;DHT22;9477;51.414;10.362;2023-03-18T08:50:52;18.20;80.20
18694;DHT22;9477;51.414;10.362;2023-03-18T08:52:55;18.20;79.80
18694;DHT22;9477;51.414;10.362;2023-03-18T08:54:59;18.20;79.90
18694;DHT22;9477;51.414;10.362;2023-03-18T08:57:02;18.40;80.20
18694;DHT22;9477;51.414;10.362;2023-03-18T08:59:05;18.50;79.90
18694;DHT22;9477;51.414;10.362;2023-03-18T09:01:07;18.50;79.50
18694;DHT22;9477;51.414;10.362;2023-03-18T09:03:14;18.70;80.00
18694;DHT22;9477;51.414;10.362;2023-03-18T09:05:17;18.80;79.60
18694;DHT22;9477;51.414;10.362;2023-03-18T09:07:20;18.80;79.10
18694;DHT22;9477;51.414;10.362;2023-03-18T09:09:23;18.70;78.20
18694;DHT22;9477;51.414;10.362;2023-03-18T09:11:43;18.70;78.60
18694;DHT22;9477;51.414;10.362;2023-03-18T09:13:48;18.80;79.20
18694;DHT22;9477;51.414;10.362;2023-03-18T09:15:51;18.90;78.90
18694;DHT22;9477;51.414;10.362;2023-03-18T09:17:55;19.00;78.70
18694;DHT22;9477;51.414;10.362;2023-03-18T09:20:15;19.20;78.80
18694;DHT22;9477;51.414;10.362;2023-03-18T09:22:18;19.20;77.90
18694;DHT22;9477;51.414;10.362;2023-03-18T09:24:22;19.30;77.90
18694;DHT22;9477;51.414;10.362;2023-03-18T09:26:25;19.40;77.90
18694;DHT22;9477;51.414;10.362;2023-03-18T09:28:28;19.50;77.80
18694;DHT22;9477;51.414;10.362;2023-03-18T09:30:31;19.50;77.70
18694;DHT22;9477;51.414;10.362;2023-03-18T09:32:34;19.60;77.60
18694;DHT22;9477;51.414;10.362;2023-03-18T09:34:37;19.60;77.70
18694;DHT22;9477;51.414;10.362;2023-03-18T09:36:41;19.70;77.70
18694;DHT22;9477;51.414;10.362;2023-03-18T09:38:51;19.70;77.20
18694;DHT22;9477;51.414;10.362;2023-03-18T09:41:02;19.70;76.80
18694;DHT22;9477;51.414;10.362;2023-03-18T09:43:22;19.70;77.00
18694;DHT22;9477;51.414;10.362;2023-03-18T09:45:32;19.70;77.00
18694;DHT22;9477;51.414;10.362;2023-03-18T09:48:04;19.80;76.70
18694;DHT22;9477;51.414;10.362;2023-03-18T09:50:20;19.90;76.60
18694;DHT22;9477;51.414;10.362;2023-03-18T09:52:28;19.70;75.80
18694;DHT22;9477;51.414;10.362;2023-03-18T09:54:35;19.80;76.50
18694;DHT22;9477;51.414;10.362;2023-03-18T09:56:43;20.00;77.20
18694;DHT22;9477;51.414;10.362;2023-03-18T09:58:50;20.20;76.80
18694;DHT22;9477;51.414;10.362;2023-03-18T10:00:59;20.30;76.40
18694;DHT22;9477;51.414;10.362;2023-03-18T10:03:05;20.30;75.80
18694;DHT22;9477;51.414;10.362;2023-03-18T10:05:12;20.30;75.60
18694;DHT22;9477;51.414;10.362;2023-03-18T10:07:20;20.30;75.80
18694;DHT22;9477;51.414;10.362;2023-03-18T10:09:29;20.40;76.20
18694;DHT22;9477;51.414;10.362;2023-03-18T10:11:38;20.60;75.70
18694;DHT22;9477;51.414;10.362;2023-03-18T10:13:46;20.50;75.40
18694;DHT22;9477;51.414;10.362;2023-03-18T10:15:52;20.60;75.90
18694;DHT22;9477;51.414;10.362;2023-03-18T10:18:01;20.80;75.70
18694;DHT22;9477;51.414;10.362;2023-03-18T10:20:14;20.80;75.10
18694;DHT22;9477;51.414;10.362;2023-03-18T10:22:37;20.80;75.00
18694;DHT22;9477;51.414;10.362;2023-03-18T10:24:52;20.90;75.00
18694;DHT22;9477;51.414;10.362;2023-03-18T10:27:06;21.00;75.00
18694;DHT22;9477;51.414;10.362;2023-03-18T10:29:41;20.90;74.60
18694;DHT22;9477;51.414;10.362;2023-03-18T10:31:56;21.10;75.10
18694;DHT22;9477;51.414;10.362;2023-03-18T10:34:07;21.20;75.10
18694;DHT22;9477;51.414;10.362;2023-03-18T10:36:18;21.30;74.40
18694;DHT22;9477;51.414;10.362;2023-03-18T10:38:23;21.30;73.90
18694;DHT22;9477;51.414;10.362;2023-03-18T10:40:33;21.40;74.30
18694;DHT22;9477;51.414;10.362;2023-03-18T10:42:37;21.60;74.20
18694;DHT22;9477;51.414;10.362;2023-03-18T10:44:41;21.60;73.00
18694;DHT22;9477;51.414;10.362;2023-03-18T10:46:45;21.70;73.10
18694;DHT22;9477;51.414;10.362;2023-03-18T10:48:51;21.80;73.60
18694;DHT22;9477;51.414;10.362;2023-03-18T10:51:04;21.90;73.30
18694;DHT22;9477;51.414;10.362;2023-03-18T10:53:15;22.00;73.00
18694;DHT22;9477;51.414;10.362;2023-03-18T10:55:24;22.10;73.20
18694;DHT22;9477;51.414;10.362;2023-03-18T10:57:31;22.30;73.00
18694;DHT22;9477;51.414;10.362;2023-03-18T10:59:34;22.60;73.00
18694;DHT22;9477;51.414;10.362;2023-03-18T11:01:37;22.90;71.80
18694;DHT22;9477;51.414;10.362;2023-03-18T11:03:43;23.00;71.30
18694;DHT22;9477;51.414;10.362;2023-03-18T11:05:48;23.10;70.30
18694;DHT22;9477;51.414;10.362;2023-03-18T11:07:56;23.20;70.00
18694;DHT22;9477;51.414;10.362;2023-03-18T11:10:10;23.20;69.50
18694;DHT22;9477;51.414;10.362;2023-03-18T11:12:15;23.20;68.60
18694;DHT22;9477;51.414;10.362;2023-03-18T11:14:26;23.10;68.20
18694;DHT22;9477;51.414;10.362;2023-03-18T11:16:36;23.30;69.40
18694;DHT22;9477;51.414;10.362;2023-03-18T11:18:43;23.40;69.40
18694;DHT22;9477;51.414;10.362;2023-03-18T11:20:51;23.50;68.60
18694;DHT22;9477;51.414;10.362;2023-03-18T11:23:03;23.70;68.70
18694;DHT22;9477;51.414;10.362;2023-03-18T11:25:14;23.60;67.40
18694;DHT22;9477;51.414;10.362;2023-03-18T11:27:24;23.30;66.70
18694;DHT22;9477;51.414;10.362;2023-03-18T11:29:32;23.00;65.90
18694;DHT22;9477;51.414;10.362;2023-03-18T11:31:47;22.60;65.70
18694;DHT22;9477;51.414;10.362;2023-03-18T11:33:56;22.60;66.50
18694;DHT22;9477;51.414;10.362;2023-03-18T11:36:04;22.60;65.70
18694;DHT22;9477;51.414;10.362;2023-03-18T11:38:14;22.80;65.10
18694;DHT22;9477;51.414;10.362;2023-03-18T11:40:22;23.10;65.60
18694;DHT22;9477;51.414;10.362;2023-03-18T11:42:26;23.20;64.20
18694;DHT22;9477;51.414;10.362;2023-03-18T11:44:31;23.20;65.00
18694;DHT22;9477;51.414;10.362;2023-03-18T11:46:38;23.40;65.10
18694;DHT22;9477;51.414;10.362;2023-03-18T11:48:42;23.50;64.20
18694;DHT22;9477;51.414;10.362;2023-03-18T11:50:56;23.40;62.80
18694;DHT22;9477;51.414;10.362;2023-03-18T11:53:08;23.50;63.30
18694;DHT22;9477;51.414;10.362;2023-03-18T11:55:16;23.50;62.80
18694;DHT22;9477;51.414;10.362;2023-03-18T11:57:28;23.50;62.70
18694;DHT22;9477;51.414;10.362;2023-03-18T11:59:41;23.50;62.50
18694;DHT22;9477;51.414;10.362;2023-03-18T12:01:53;22.90;59.30
18694;DHT22;9477;51.414;10.362;2023-03-18T12:04:25;22.70;60.60
18694;DHT22;9477;51.414;10.362;2023-03-18T12:06:32;22.40;61.60
18694;DHT22;9477;51.414;10.362;2023-03-18T12:08:59;22.60;62.70
18694;DHT22;9477;51.414;10.362;2023-03-18T12:11:11;22.80;62.50
18694;DHT22;9477;51.414;10.362;2023-03-18T12:13:29;22.90;62.50
18694;DHT22;9477;51.414;10.362;2023-03-18T12:15:45;22.80;61.80
18694;DHT22;9477;51.414;10.362;2023-03-18T12:17:56;22.90;62.40
18694;DHT22;9477;51.414;10.362;2023-03-18T12:20:11;23.00;61.90
18694;DHT22;9477;51.414;10.362;2023-03-18T12:22:28;23.00;62.50
18694;DHT22;9477;51.414;10.362;2023-03-18T12:24:49;23.00;61.50
18694;DHT22;9477;51.414;10.362;2023-03-18T12:27:01;23.00;61.10
18694;DHT22;9477;51.414;10.362;2023-03-18T12:29:27;23.10;62.00
18694;DHT22;9477;51.414;10.362;2023-03-18T12:31:51;23.20;62.20
18694;DHT22;9477;51.414;10.362;2023-03-18T12:34:02;23.50;61.70
18694;DHT22;9477;51.414;10.362;2023-03-18T12:36:12;23.50;61.00
18694;DHT22;9477;51.414;10.362;2023-03-18T12:38:42;23.50;61.10
18694;DHT22;9477;51.414;10.362;2023-03-18T12:40:55;23.60;60.50
18694;DHT22;9477;51.414;10.362;2023-03-18T12:43:19;23.60;60.50
18694;DHT22;9477;51.414;10.362;2023-03-18T12:45:26;23.70;61.00
18694;DHT22;9477;51.414;10.362;2023-03-18T12:47:37;23.70;60.70
18694;DHT22;9477;51.414;10.362;2023-03-18T12:49:44;23.80;60.30
18694;DHT22;9477;51.414;10.362;2023-03-18T12:51:53;23.80;60.00
18694;DHT22;9477;51.414;10.362;2023-03-18T12:54:04;23.70;60.10
18694;DHT22;9477;51.414;10.362;2023-03-18T12:56:13;23.50;59.50
18694;DHT22;9477;51.414;10.362;2023-03-18T12:58:21;23.40;60.20
18694;DHT22;9477;51.414;10.362;2023-03-18T13:00:29;23.40;60.10
18694;DHT22;9477;51.414;10.362;2023-03-18T13:02:39;23.40;58.60
18694;DHT22;9477;51.414;10.362;2023-03-18T13:04:49;23.30;59.50
18694;DHT22;9477;51.414;10.362;2023-03-18T13:07:01;23.60;60.30
18694;DHT22;9477;51.414;10.362;2023-03-18T13:09:13;23.80;59.50
18694;DHT22;9477;51.414;10.362;2023-03-18T13:11:54;23.50;58.40
18694;DHT22;9477;51.414;10.362;2023-03-18T13:14:02;23.70;59.80
18694;DHT22;9477;51.414;10.362;2023-03-18T13:16:07;23.80;60.00